createdAt,value
2023-04-11T00:00:42.490Z,21.75
2023-04-11T00:05:45.525Z,21.74
2023-04-11T00:10:49.656Z,21.74
2023-04-11T00:15:55.362Z,21.69
2023-04-11T00:20:58.136Z,21.68
2023-04-11T00:26:02.387Z,21.69
2023-04-11T00:31:05.403Z,21.64
2023-04-11T00:36:09.496Z,21.62
2023-04-11T00:41:13.622Z,21.62
2023-04-11T00:46:17.038Z,21.61
2023-04-11T00:51:19.955Z,21.57
2023-04-11T00:56:24.098Z,21.56
2023-04-11T01:01:30.067Z,21.54
2023-04-11T01:06:33.625Z,21.54
2023-04-11T01:11:37.825Z,21.54
2023-04-11T01:16:40.758Z,21.50
2023-04-11T01:21:43.618Z,21.48
2023-04-11T01:26:47.688Z,21.46
2023-04-11T01:31:52.327Z,21.43
2023-04-11T01:36:55.165Z,21.41
2023-04-11T01:41:59.387Z,21.39
2023-04-11T01:47:02.137Z,21.33
2023-04-11T01:52:04.980Z,21.31
2023-04-11T01:57:09.124Z,21.30
2023-04-11T02:02:12.346Z,21.26
2023-04-11T02:07:15.326Z,21.22
2023-04-11T02:12:19.496Z,21.21
2023-04-11T02:17:25.758Z,21.10
2023-04-11T02:22:28.789Z,21.15
2023-04-11T02:27:32.997Z,21.15
2023-04-11T02:32:35.992Z,21.11
2023-04-11T02:37:38.793Z,21.08
2023-04-11T02:42:43.308Z,21.08
2023-04-11T02:47:46.883Z,21.03
2023-04-11T02:52:50.195Z,21.02
2023-04-11T02:57:58.546Z,21.02
2023-04-11T03:03:02.561Z,20.98
2023-04-11T03:08:09.851Z,20.95
2023-04-11T03:13:17.745Z,20.90
2023-04-11T03:18:22.378Z,20.89
2023-04-11T03:23:25.308Z,20.86
2023-04-11T03:28:30.051Z,20.86
2023-04-11T03:33:33.515Z,20.83
2023-04-11T03:38:36.545Z,20.80
2023-04-11T03:43:40.853Z,20.79
2023-04-11T03:48:47.061Z,20.76
2023-04-11T03:53:52.266Z,20.74
2023-04-11T03:59:07.394Z,20.78
2023-04-11T04:04:23.081Z,20.69
2023-04-11T04:09:35.732Z,20.62
2023-04-11T04:14:41.134Z,20.61
2023-04-11T04:19:45.593Z,20.60
2023-04-11T04:24:50.149Z,20.60
2023-04-11T04:30:03.644Z,20.62
2023-04-11T04:35:22.228Z,20.57
2023-04-11T04:40:26.060Z,20.58
2023-04-11T04:45:38.250Z,20.59
2023-04-11T04:50:41.223Z,20.52
2023-04-11T04:55:44.171Z,20.51
2023-04-11T05:00:49.464Z,20.49
2023-04-11T05:05:59.542Z,20.49
2023-04-11T05:11:02.651Z,20.48
2023-04-11T05:16:08.503Z,20.48
2023-04-11T05:21:11.713Z,20.46
2023-04-11T05:26:17.340Z,20.45
2023-04-11T05:31:21.911Z,20.46
2023-04-11T05:36:24.915Z,20.44
2023-04-11T05:41:27.701Z,20.43
2023-04-11T05:46:35.576Z,20.41
2023-04-11T05:51:38.537Z,20.38
2023-04-11T05:56:42.842Z,20.42
2023-04-11T06:01:47.198Z,20.39
2023-04-11T06:06:49.992Z,20.38
2023-04-11T06:11:52.890Z,20.38
2023-04-11T06:16:57.069Z,20.40
2023-04-11T06:22:00.030Z,20.37
2023-04-11T06:27:03.497Z,20.35
2023-04-11T06:32:07.742Z,20.35
2023-04-11T06:37:10.718Z,20.32
2023-04-11T06:42:13.481Z,20.33
2023-04-11T06:47:21.082Z,20.39
2023-04-11T06:52:24.579Z,20.38
2023-04-11T06:57:28.632Z,20.39
2023-04-11T07:02:35.687Z,20.41
2023-04-11T07:07:38.857Z,20.39
2023-04-11T07:12:41.627Z,20.40
2023-04-11T07:17:45.829Z,20.44
2023-04-11T07:27:51.708Z,20.37
2023-04-11T07:32:55.912Z,20.35
2023-04-11T07:37:58.853Z,20.33
2023-04-11T07:43:02.092Z,20.32
2023-04-11T07:48:06.629Z,20.36
2023-04-11T07:53:10.857Z,20.38
2023-04-11T07:58:13.635Z,20.41
2023-04-11T08:03:17.963Z,20.44
2023-04-11T08:08:20.955Z,20.43
2023-04-11T08:13:23.694Z,20.46
2023-04-11T08:18:27.827Z,20.40
2023-04-11T08:23:30.752Z,18.60
2023-04-11T08:28:33.484Z,18.29
2023-04-11T08:33:37.709Z,18.94
2023-04-11T08:38:41.694Z,19.32
2023-04-11T08:43:46.896Z,19.62
2023-04-11T08:48:51.155Z,19.85
2023-04-11T08:54:03.833Z,20.00
2023-04-11T08:59:11.824Z,20.12
2023-04-11T09:04:16.038Z,20.17
2023-04-11T09:09:29.364Z,20.18
2023-04-11T09:14:32.753Z,20.20
2023-04-11T09:19:37.200Z,20.24
2023-04-11T09:24:39.938Z,20.23
2023-04-11T09:29:43.349Z,20.15
2023-04-11T09:34:49.417Z,20.14
2023-04-11T09:39:59.994Z,20.18
2023-04-11T09:45:03.836Z,20.24
2023-04-11T09:50:08.968Z,20.31
2023-04-11T09:55:12.893Z,20.37
2023-04-11T10:00:17.265Z,20.46
2023-04-11T10:05:22.114Z,20.47
2023-04-11T10:10:25.036Z,20.52
2023-04-11T10:15:28.008Z,20.48
2023-04-11T10:20:49.771Z,20.44
2023-04-11T10:25:56.331Z,20.41
2023-04-11T10:31:17.481Z,20.39
2023-04-11T10:36:23.045Z,20.33
2023-04-11T10:41:28.000Z,20.44
2023-04-11T10:46:30.925Z,20.49
2023-04-11T10:51:35.373Z,20.54
2023-04-11T10:56:57.258Z,20.60
2023-04-11T11:02:01.348Z,20.64
2023-04-11T11:07:07.130Z,20.66
2023-04-11T11:12:10.113Z,20.65
2023-04-11T11:17:13.125Z,20.62
2023-04-11T11:22:17.527Z,20.63
2023-04-11T11:27:22.517Z,20.66
2023-04-11T11:32:28.394Z,20.73
2023-04-11T11:37:32.950Z,20.74
2023-04-11T11:42:35.894Z,20.73
2023-04-11T11:47:42.534Z,20.79
2023-04-11T11:52:48.900Z,20.86
2023-04-11T11:57:52.046Z,20.87
2023-04-11T12:02:55.964Z,20.94
2023-04-11T12:08:01.217Z,21.04
2023-04-11T12:13:04.184Z,21.11
2023-04-11T12:18:07.582Z,21.13
2023-04-11T12:23:11.912Z,21.12
2023-04-11T12:28:14.736Z,21.18
2023-04-11T12:33:17.782Z,21.19
2023-04-11T12:38:22.688Z,21.26
2023-04-11T12:43:25.608Z,21.31
2023-04-11T12:48:28.516Z,21.17
2023-04-11T12:53:32.902Z,21.11
2023-04-11T12:58:35.799Z,21.08
2023-04-11T13:03:38.962Z,21.17
2023-04-11T13:08:43.465Z,21.24
2023-04-11T13:13:46.462Z,21.24
2023-04-11T13:18:49.477Z,21.17
2023-04-11T13:23:53.725Z,21.19
2023-04-11T13:28:56.937Z,21.28
2023-04-11T13:34:00.073Z,21.18
2023-04-11T13:39:05.798Z,21.15
2023-04-11T13:44:08.880Z,21.05
2023-04-11T13:49:12.050Z,21.06
2023-04-11T13:54:16.347Z,21.13
2023-04-11T13:59:19.284Z,21.11
2023-04-11T14:04:22.431Z,21.19
2023-04-11T14:09:27.279Z,21.18
2023-04-11T14:14:30.152Z,21.16
2023-04-11T14:19:32.987Z,21.25
2023-04-11T14:24:37.122Z,21.32
2023-04-11T14:29:40.597Z,21.30
2023-04-11T14:34:43.677Z,21.39
2023-04-11T14:39:47.942Z,21.71
2023-04-11T14:44:51.626Z,22.13
2023-04-11T14:49:54.387Z,22.36
2023-04-11T14:54:58.780Z,22.23
2023-04-11T15:00:03.016Z,22.24
2023-04-11T15:05:08.482Z,22.24
2023-04-11T15:10:13.355Z,22.30
2023-04-11T15:15:17.613Z,22.33
2023-04-11T15:20:20.920Z,22.35
2023-04-11T15:25:25.159Z,22.38
2023-04-11T15:30:28.248Z,22.43
2023-04-11T15:35:31.044Z,22.43
2023-04-11T15:40:35.423Z,22.43
2023-04-11T15:45:39.413Z,22.47
2023-04-11T15:50:42.419Z,22.48
2023-04-11T15:55:47.647Z,22.45
2023-04-11T16:00:51.309Z,22.43
2023-04-11T16:05:54.310Z,22.43
2023-04-11T16:10:58.507Z,22.39
2023-04-11T16:16:01.514Z,22.40
2023-04-11T16:21:04.889Z,22.42
2023-04-11T16:26:09.612Z,23.32
2023-04-11T16:31:15.140Z,23.78
2023-04-11T16:36:18.053Z,23.41
2023-04-11T16:41:22.348Z,23.13
2023-04-11T16:46:25.326Z,22.89
2023-04-11T16:51:28.446Z,22.71
2023-04-11T16:56:32.659Z,22.57
2023-04-11T17:01:35.637Z,22.44
2023-04-11T17:06:38.785Z,22.33
2023-04-11T17:11:42.921Z,22.24
2023-04-11T17:16:46.373Z,22.15
2023-04-11T17:21:49.229Z,22.04
2023-04-11T17:26:53.408Z,21.99
2023-04-11T17:31:56.666Z,21.93
2023-04-11T17:36:59.624Z,21.89
2023-04-11T17:42:03.780Z,21.86
2023-04-11T17:47:07.151Z,21.83
2023-04-11T17:52:09.899Z,21.79
2023-04-11T17:57:15.103Z,21.76
2023-04-11T18:02:19.516Z,21.74
2023-04-11T18:07:24.364Z,21.75
2023-04-11T18:12:29.499Z,21.72
2023-04-11T18:17:33.235Z,21.72
2023-04-11T18:22:36.343Z,21.72
2023-04-11T18:27:40.750Z,21.69
2023-04-11T18:32:48.651Z,21.67
2023-04-11T18:37:53.968Z,21.65
2023-04-11T18:42:58.582Z,21.65
2023-04-11T18:48:01.676Z,21.68
2023-04-11T18:53:05.802Z,21.72
2023-04-11T18:58:15.238Z,21.72
2023-04-11T19:03:19.617Z,21.75
2023-04-11T19:08:22.563Z,21.76
2023-04-11T19:13:26.781Z,21.75
2023-04-11T19:18:30.043Z,21.70
2023-04-11T19:23:33.232Z,21.75
2023-04-11T19:28:37.340Z,21.75
2023-04-11T19:33:40.250Z,21.80
2023-04-11T19:38:43.338Z,21.83
2023-04-11T19:43:48.400Z,21.84
2023-04-11T19:48:51.461Z,21.82
2023-04-11T19:53:54.371Z,21.84
2023-04-11T19:58:58.492Z,21.85
2023-04-11T20:04:02.268Z,21.86
2023-04-11T20:09:05.581Z,21.87
2023-04-11T20:14:09.678Z,21.88
2023-04-11T20:19:12.529Z,21.86
2023-04-11T20:24:15.441Z,21.89
2023-04-11T20:29:21.257Z,21.90
2023-04-11T20:34:24.121Z,21.90
2023-04-11T20:39:27.436Z,21.89
2023-04-11T20:44:34.072Z,21.90
2023-04-11T20:49:36.825Z,21.89
2023-04-11T20:54:40.915Z,21.91
2023-04-11T20:59:45.024Z,21.90
2023-04-11T21:04:51.446Z,21.90
2023-04-11T21:09:56.210Z,21.89
2023-04-11T21:15:00.578Z,21.86
2023-04-11T21:20:07.280Z,21.86
2023-04-11T21:25:10.336Z,21.86
2023-04-11T21:30:14.998Z,21.81
2023-04-11T21:35:17.855Z,21.82
2023-04-11T21:40:20.767Z,21.78
2023-04-11T21:45:24.886Z,21.73
2023-04-11T21:50:27.754Z,21.77
2023-04-11T21:55:30.564Z,21.74
2023-04-11T22:00:34.734Z,21.73
2023-04-11T22:05:38.355Z,21.70
2023-04-11T22:10:47.755Z,21.68
2023-04-11T22:15:58.605Z,21.71
2023-04-11T22:21:03.062Z,21.74
2023-04-11T22:26:06.519Z,21.72
2023-04-11T22:31:13.530Z,21.71
2023-04-11T22:36:16.480Z,21.68
2023-04-11T22:41:19.253Z,21.69
2023-04-11T22:46:23.794Z,21.66
2023-04-11T22:51:29.870Z,21.64
2023-04-11T22:56:32.752Z,21.61
2023-04-11T23:01:37.030Z,21.58
2023-04-11T23:06:39.811Z,21.55
2023-04-11T23:11:42.635Z,21.49
2023-04-11T23:16:46.789Z,21.46
2023-04-11T23:21:49.734Z,21.44
2023-04-11T23:26:52.551Z,21.40
2023-04-11T23:31:56.673Z,21.36
2023-04-11T23:36:59.471Z,21.33
2023-04-11T23:42:02.409Z,21.29
2023-04-11T23:47:07.089Z,21.26
2023-04-11T23:52:11.119Z,21.22
2023-04-11T23:57:13.914Z,21.20
